sensor_id;sensor_type;location;lat;lon;timestamp;P1;durP1;ratioP1;P2;durP2;ratioP2
46607;SDS011;32330;51.936;7.184;2024-03-23T00:55:35;16.67;;;4.20;;
46607;SDS011;32330;51.936;7.184;2024-03-23T00:58:02;15.35;;;5.82;;
46607;SDS011;32330;51.936;7.184;2024-03-23T01:00:28;11.52;;;4.05;;
46607;SDS011;32330;51.936;7.184;2024-03-23T01:02:55;12.95;;;4.20;;
46607;SDS011;32330;51.936;7.184;2024-03-23T01:05:21;12.65;;;4.43;;
46607;SDS011;32330;51.936;7.184;2024-03-23T01:07:48;12.13;;;4.43;;
46607;SDS011;32330;51.936;7.184;2024-03-23T01:10:15;13.13;;;4.18;;
46607;SDS011;32330;51.936;7.184;2024-03-23T01:12:43;12.93;;;3.70;;
46607;SDS011;32330;51.936;7.184;2024-03-23T01:15:09;16.38;;;3.72;;
46607;SDS011;32330;51.936;7.184;2024-03-23T01:17:36;15.68;;;4.50;;
46607;SDS011;32330;51.936;7.184;2024-03-23T01:20:03;13.52;;;4.80;;
46607;SDS011;32330;51.936;7.184;2024-03-23T01:22:31;17.58;;;5.10;;
46607;SDS011;32330;51.936;7.184;2024-03-23T01:24:58;15.63;;;4.85;;
46607;SDS011;32330;51.936;7.184;2024-03-23T01:27:25;15.90;;;5.05;;
46607;SDS011;32330;51.936;7.184;2024-03-23T01:29:52;15.85;;;4.43;;
46607;SDS011;32330;51.936;7.184;2024-03-23T01:32:20;9.95;;;3.70;;
46607;SDS011;32330;51.936;7.184;2024-03-23T01:34:46;20.33;;;5.05;;
46607;SDS011;32330;51.936;7.184;2024-03-23T01:37:13;13.70;;;5.00;;
46607;SDS011;32330;51.936;7.184;2024-03-23T01:39:39;19.45;;;5.38;;
46607;SDS011;32330;51.936;7.184;2024-03-23T01:42:06;14.45;;;4.55;;
46607;SDS011;32330;51.936;7.184;2024-03-23T01:44:32;14.10;;;5.05;;
46607;SDS011;32330;51.936;7.184;2024-03-23T01:47:00;16.23;;;5.65;;
46607;SDS011;32330;51.936;7.184;2024-03-23T01:49:27;13.10;;;4.10;;
46607;SDS011;32330;51.936;7.184;2024-03-23T01:51:54;15.75;;;4.68;;
46607;SDS011;32330;51.936;7.184;2024-03-23T01:54:21;13.75;;;4.43;;
46607;SDS011;32330;51.936;7.184;2024-03-23T01:56:49;11.88;;;4.18;;
46607;SDS011;32330;51.936;7.184;2024-03-23T01:59:15;16.13;;;4.60;;
46607;SDS011;32330;51.936;7.184;2024-03-23T02:01:42;13.88;;;5.60;;
46607;SDS011;32330;51.936;7.184;2024-03-23T02:04:10;12.70;;;4.82;;
46607;SDS011;32330;51.936;7.184;2024-03-23T02:06:37;16.80;;;4.80;;
46607;SDS011;32330;51.936;7.184;2024-03-23T02:09:03;14.80;;;4.97;;
46607;SDS011;32330;51.936;7.184;2024-03-23T02:11:30;12.82;;;4.80;;
46607;SDS011;32330;51.936;7.184;2024-03-23T02:13:56;16.83;;;5.32;;
46607;SDS011;32330;51.936;7.184;2024-03-23T02:16:23;16.55;;;5.28;;
46607;SDS011;32330;51.936;7.184;2024-03-23T02:18:50;13.98;;;4.65;;
46607;SDS011;32330;51.936;7.184;2024-03-23T02:21:18;15.23;;;4.35;;
46607;SDS011;32330;51.936;7.184;2024-03-23T02:23:45;14.45;;;4.88;;
46607;SDS011;32330;51.936;7.184;2024-03-23T02:26:12;14.30;;;5.63;;
46607;SDS011;32330;51.936;7.184;2024-03-23T02:28:39;14.13;;;4.90;;
46607;SDS011;32330;51.936;7.184;2024-03-23T02:31:06;14.43;;;4.43;;
46607;SDS011;32330;51.936;7.184;2024-03-23T02:33:32;17.45;;;4.78;;
46607;SDS011;32330;51.936;7.184;2024-03-23T02:36:03;17.93;;;5.70;;
46607;SDS011;32330;51.936;7.184;2024-03-23T02:38:29;16.83;;;6.00;;
46607;SDS011;32330;51.936;7.184;2024-03-23T02:41:02;14.20;;;5.55;;
46607;SDS011;32330;51.936;7.184;2024-03-23T02:43:28;15.88;;;4.70;;
46607;SDS011;32330;51.936;7.184;2024-03-23T02:45:55;15.32;;;4.95;;
46607;SDS011;32330;51.936;7.184;2024-03-23T02:48:21;13.13;;;5.13;;
46607;SDS011;32330;51.936;7.184;2024-03-23T02:50:48;13.65;;;5.75;;
46607;SDS011;32330;51.936;7.184;2024-03-23T02:53:15;17.98;;;6.05;;
46607;SDS011;32330;51.936;7.184;2024-03-23T02:55:42;14.05;;;5.30;;
46607;SDS011;32330;51.936;7.184;2024-03-23T02:58:10;13.27;;;5.38;;
46607;SDS011;32330;51.936;7.184;2024-03-23T03:00:37;18.20;;;5.68;;
46607;SDS011;32330;51.936;7.184;2024-03-23T03:03:03;21.30;;;5.90;;
46607;SDS011;32330;51.936;7.184;2024-03-23T03:05:32;26.05;;;6.78;;
46607;SDS011;32330;51.936;7.184;2024-03-23T03:07:58;17.73;;;6.00;;
46607;SDS011;32330;51.936;7.184;2024-03-23T03:10:25;13.02;;;4.80;;
46607;SDS011;32330;51.936;7.184;2024-03-23T03:12:51;13.98;;;5.35;;
46607;SDS011;32330;51.936;7.184;2024-03-23T03:15:19;18.75;;;5.85;;
46607;SDS011;32330;51.936;7.184;2024-03-23T03:17:46;17.40;;;5.38;;
46607;SDS011;32330;51.936;7.184;2024-03-23T03:20:13;19.98;;;6.00;;
46607;SDS011;32330;51.936;7.184;2024-03-23T03:22:40;17.42;;;5.28;;
46607;SDS011;32330;51.936;7.184;2024-03-23T03:25:07;14.70;;;5.22;;
46607;SDS011;32330;51.936;7.184;2024-03-23T03:27:33;18.60;;;5.18;;
46607;SDS011;32330;51.936;7.184;2024-03-23T03:30:01;17.17;;;6.45;;
46607;SDS011;32330;51.936;7.184;2024-03-23T03:32:29;16.73;;;5.80;;
46607;SDS011;32330;51.936;7.184;2024-03-23T03:34:57;14.65;;;5.05;;
46607;SDS011;32330;51.936;7.184;2024-03-23T03:37:23;16.52;;;6.00;;
46607;SDS011;32330;51.936;7.184;2024-03-23T03:39:50;20.75;;;5.82;;
46607;SDS011;32330;51.936;7.184;2024-03-23T03:42:16;23.58;;;7.07;;
46607;SDS011;32330;51.936;7.184;2024-03-23T03:44:43;18.60;;;5.80;;
46607;SDS011;32330;51.936;7.184;2024-03-23T03:47:09;19.75;;;6.55;;
46607;SDS011;32330;51.936;7.184;2024-03-23T03:49:37;17.38;;;6.78;;
46607;SDS011;32330;51.936;7.184;2024-03-23T03:52:04;16.90;;;6.85;;
46607;SDS011;32330;51.936;7.184;2024-03-23T03:54:32;19.05;;;6.72;;
46607;SDS011;32330;51.936;7.184;2024-03-23T03:56:59;16.13;;;6.93;;
46607;SDS011;32330;51.936;7.184;2024-03-23T03:59:26;18.38;;;7.28;;
46607;SDS011;32330;51.936;7.184;2024-03-23T04:01:52;27.38;;;7.80;;
46607;SDS011;32330;51.936;7.184;2024-03-23T04:04:19;20.35;;;7.90;;
46607;SDS011;32330;51.936;7.184;2024-03-23T04:06:47;20.92;;;7.47;;
46607;SDS011;32330;51.936;7.184;2024-03-23T04:09:14;18.40;;;8.02;;
46607;SDS011;32330;51.936;7.184;2024-03-23T04:11:40;21.88;;;8.10;;
46607;SDS011;32330;51.936;7.184;2024-03-23T04:14:07;20.70;;;7.97;;
46607;SDS011;32330;51.936;7.184;2024-03-23T04:16:34;19.92;;;8.77;;
46607;SDS011;32330;51.936;7.184;2024-03-23T04:19:01;24.63;;;8.68;;
46607;SDS011;32330;51.936;7.184;2024-03-23T04:21:28;21.80;;;7.97;;
46607;SDS011;32330;51.936;7.184;2024-03-23T04:23:56;20.52;;;8.40;;
46607;SDS011;32330;51.936;7.184;2024-03-23T04:26:22;19.20;;;8.07;;
46607;SDS011;32330;51.936;7.184;2024-03-23T04:28:49;21.08;;;8.88;;
46607;SDS011;32330;51.936;7.184;2024-03-23T04:31:16;21.27;;;8.00;;
46607;SDS011;32330;51.936;7.184;2024-03-23T04:33:42;23.98;;;9.57;;
46607;SDS011;32330;51.936;7.184;2024-03-23T04:36:09;24.05;;;10.02;;
46607;SDS011;32330;51.936;7.184;2024-03-23T04:38:35;21.85;;;10.00;;
46607;SDS011;32330;51.936;7.184;2024-03-23T04:41:05;18.90;;;9.02;;
46607;SDS011;32330;51.936;7.184;2024-03-23T04:43:32;21.10;;;10.10;;
46607;SDS011;32330;51.936;7.184;2024-03-23T04:46:00;25.05;;;9.90;;
46607;SDS011;32330;51.936;7.184;2024-03-23T04:48:27;24.65;;;9.80;;
46607;SDS011;32330;51.936;7.184;2024-03-23T04:50:55;20.88;;;9.65;;
46607;SDS011;32330;51.936;7.184;2024-03-23T04:53:23;19.77;;;8.05;;
46607;SDS011;32330;51.936;7.184;2024-03-23T04:55:54;23.98;;;10.70;;
46607;SDS011;32330;51.936;7.184;2024-03-23T04:58:23;18.30;;;8.60;;
46607;SDS011;32330;51.936;7.184;2024-03-23T05:00:52;24.08;;;9.07;;
46607;SDS011;32330;51.936;7.184;2024-03-23T05:03:20;22.20;;;8.65;;
46607;SDS011;32330;51.936;7.184;2024-03-23T05:05:46;21.88;;;9.20;;
46607;SDS011;32330;51.936;7.184;2024-03-23T05:08:14;16.95;;;9.27;;
46607;SDS011;32330;51.936;7.184;2024-03-23T05:10:41;21.25;;;9.43;;
46607;SDS011;32330;51.936;7.184;2024-03-23T05:13:08;18.67;;;7.97;;
46607;SDS011;32330;51.936;7.184;2024-03-23T05:15:35;16.75;;;7.85;;
46607;SDS011;32330;51.936;7.184;2024-03-23T05:18:03;18.77;;;9.02;;
46607;SDS011;32330;51.936;7.184;2024-03-23T05:20:30;24.30;;;8.95;;
46607;SDS011;32330;51.936;7.184;2024-03-23T05:22:57;19.05;;;8.48;;
46607;SDS011;32330;51.936;7.184;2024-03-23T05:25:23;17.65;;;8.55;;
46607;SDS011;32330;51.936;7.184;2024-03-23T05:27:51;18.85;;;8.18;;
46607;SDS011;32330;51.936;7.184;2024-03-23T05:30:17;19.95;;;8.38;;
46607;SDS011;32330;51.936;7.184;2024-03-23T05:32:45;22.90;;;8.10;;
46607;SDS011;32330;51.936;7.184;2024-03-23T05:35:11;13.23;;;7.93;;
46607;SDS011;32330;51.936;7.184;2024-03-23T05:37:38;17.02;;;8.98;;
46607;SDS011;32330;51.936;7.184;2024-03-23T05:40:05;18.42;;;7.05;;
46607;SDS011;32330;51.936;7.184;2024-03-23T05:42:33;18.63;;;8.63;;
46607;SDS011;32330;51.936;7.184;2024-03-23T05:44:59;16.65;;;7.85;;
46607;SDS011;32330;51.936;7.184;2024-03-23T05:47:27;21.83;;;8.43;;
46607;SDS011;32330;51.936;7.184;2024-03-23T05:49:55;19.42;;;9.27;;
46607;SDS011;32330;51.936;7.184;2024-03-23T05:52:22;24.38;;;8.07;;
46607;SDS011;32330;51.936;7.184;2024-03-23T05:54:50;17.77;;;8.82;;
46607;SDS011;32330;51.936;7.184;2024-03-23T05:57:17;29.10;;;10.38;;
46607;SDS011;32330;51.936;7.184;2024-03-23T05:59:44;17.83;;;7.38;;
46607;SDS011;32330;51.936;7.184;2024-03-23T06:02:11;21.15;;;8.10;;
46607;SDS011;32330;51.936;7.184;2024-03-23T06:04:37;17.60;;;8.00;;
46607;SDS011;32330;51.936;7.184;2024-03-23T06:07:05;17.25;;;8.55;;
46607;SDS011;32330;51.936;7.184;2024-03-23T06:09:32;16.52;;;7.90;;
46607;SDS011;32330;51.936;7.184;2024-03-23T06:11:59;19.75;;;8.10;;
46607;SDS011;32330;51.936;7.184;2024-03-23T06:14:25;20.30;;;8.35;;
46607;SDS011;32330;51.936;7.184;2024-03-23T06:16:52;20.88;;;9.52;;
46607;SDS011;32330;51.936;7.184;2024-03-23T06:19:18;21.35;;;8.85;;
46607;SDS011;32330;51.936;7.184;2024-03-23T06:21:45;17.65;;;8.50;;
46607;SDS011;32330;51.936;7.184;2024-03-23T06:24:13;19.30;;;9.00;;
46607;SDS011;32330;51.936;7.184;2024-03-23T06:26:40;24.05;;;10.05;;
46607;SDS011;32330;51.936;7.184;2024-03-23T06:29:06;19.80;;;9.57;;
46607;SDS011;32330;51.936;7.184;2024-03-23T06:31:34;20.75;;;8.90;;
46607;SDS011;32330;51.936;7.184;2024-03-23T06:34:00;16.70;;;8.88;;
46607;SDS011;32330;51.936;7.184;2024-03-23T06:36:27;19.45;;;8.23;;
46607;SDS011;32330;51.936;7.184;2024-03-23T06:38:55;21.67;;;10.05;;
46607;SDS011;32330;51.936;7.184;2024-03-23T06:41:24;16.73;;;9.30;;
46607;SDS011;32330;51.936;7.184;2024-03-23T06:43:51;19.42;;;8.93;;
46607;SDS011;32330;51.936;7.184;2024-03-23T06:46:18;21.25;;;9.32;;
46607;SDS011;32330;51.936;7.184;2024-03-23T06:48:44;16.77;;;8.57;;
46607;SDS011;32330;51.936;7.184;2024-03-23T06:51:11;18.98;;;8.23;;
46607;SDS011;32330;51.936;7.184;2024-03-23T06:53:37;18.88;;;8.63;;
46607;SDS011;32330;51.936;7.184;2024-03-23T06:56:05;18.90;;;8.65;;
46607;SDS011;32330;51.936;7.184;2024-03-23T06:58:33;18.83;;;7.65;;
46607;SDS011;32330;51.936;7.184;2024-03-23T07:01:00;18.40;;;8.75;;
46607;SDS011;32330;51.936;7.184;2024-03-23T07:03:26;20.60;;;8.98;;
46607;SDS011;32330;51.936;7.184;2024-03-23T07:05:53;21.95;;;8.20;;
46607;SDS011;32330;51.936;7.184;2024-03-23T07:08:23;22.50;;;8.48;;
46607;SDS011;32330;51.936;7.184;2024-03-23T07:10:50;20.65;;;7.75;;
46607;SDS011;32330;51.936;7.184;2024-03-23T07:13:16;19.35;;;8.05;;
46607;SDS011;32330;51.936;7.184;2024-03-23T07:15:49;22.92;;;8.25;;
46607;SDS011;32330;51.936;7.184;2024-03-23T07:18:17;22.13;;;9.73;;
46607;SDS011;32330;51.936;7.184;2024-03-23T07:20:51;14.98;;;6.88;;
46607;SDS011;32330;51.936;7.184;2024-03-23T07:23:18;14.02;;;5.97;;
46607;SDS011;32330;51.936;7.184;2024-03-23T07:25:45;14.48;;;7.32;;
46607;SDS011;32330;51.936;7.184;2024-03-23T07:28:21;17.10;;;6.07;;
46607;SDS011;32330;51.936;7.184;2024-03-23T07:30:49;15.73;;;6.47;;
46607;SDS011;32330;51.936;7.184;2024-03-23T07:33:27;22.33;;;6.60;;
46607;SDS011;32330;51.936;7.184;2024-03-23T07:35:55;16.08;;;5.28;;
46607;SDS011;32330;51.936;7.184;2024-03-23T07:38:21;22.27;;;6.53;;
46607;SDS011;32330;51.936;7.184;2024-03-23T07:40:48;16.33;;;5.78;;
46607;SDS011;32330;51.936;7.184;2024-03-23T07:43:15;15.90;;;5.38;;
46607;SDS011;32330;51.936;7.184;2024-03-23T07:45:42;13.38;;;5.72;;
46607;SDS011;32330;51.936;7.184;2024-03-23T07:48:09;13.07;;;5.30;;
46607;SDS011;32330;51.936;7.184;2024-03-23T07:50:37;13.57;;;4.72;;
46607;SDS011;32330;51.936;7.184;2024-03-23T07:53:03;16.63;;;5.80;;
46607;SDS011;32330;51.936;7.184;2024-03-23T07:55:31;15.27;;;5.18;;
46607;SDS011;32330;51.936;7.184;2024-03-23T07:57:57;13.60;;;4.50;;
46607;SDS011;32330;51.936;7.184;2024-03-23T08:00:24;15.50;;;4.78;;
46607;SDS011;32330;51.936;7.184;2024-03-23T08:02:50;16.60;;;5.55;;
46607;SDS011;32330;51.936;7.184;2024-03-23T08:05:19;11.75;;;4.43;;
46607;SDS011;32330;51.936;7.184;2024-03-23T08:07:48;15.98;;;4.95;;
46607;SDS011;32330;51.936;7.184;2024-03-23T08:10:16;14.02;;;4.43;;
46607;SDS011;32330;51.936;7.184;2024-03-23T08:12:45;12.57;;;4.75;;
46607;SDS011;32330;51.936;7.184;2024-03-23T08:15:12;13.30;;;4.10;;
46607;SDS011;32330;51.936;7.184;2024-03-23T08:17:39;15.98;;;3.95;;
46607;SDS011;32330;51.936;7.184;2024-03-23T08:20:06;12.18;;;3.65;;
46607;SDS011;32330;51.936;7.184;2024-03-23T08:22:34;12.75;;;3.92;;
46607;SDS011;32330;51.936;7.184;2024-03-23T08:25:02;13.60;;;3.42;;
46607;SDS011;32330;51.936;7.184;2024-03-23T08:27:28;10.13;;;3.83;;
46607;SDS011;32330;51.936;7.184;2024-03-23T08:29:55;11.07;;;3.42;;
46607;SDS011;32330;51.936;7.184;2024-03-23T08:32:22;14.60;;;3.97;;
46607;SDS011;32330;51.936;7.184;2024-03-23T08:34:49;13.93;;;3.83;;
46607;SDS011;32330;51.936;7.184;2024-03-23T08:37:15;11.98;;;3.50;;
46607;SDS011;32330;51.936;7.184;2024-03-23T08:39:44;9.50;;;3.50;;
46607;SDS011;32330;51.936;7.184;2024-03-23T08:42:10;13.68;;;3.47;;
46607;SDS011;32330;51.936;7.184;2024-03-23T08:44:37;12.80;;;4.13;;
46607;SDS011;32330;51.936;7.184;2024-03-23T08:47:03;13.63;;;4.82;;
46607;SDS011;32330;51.936;7.184;2024-03-23T08:49:31;13.07;;;3.92;;
46607;SDS011;32330;51.936;7.184;2024-03-23T08:51:57;10.57;;;4.82;;
46607;SDS011;32330;51.936;7.184;2024-03-23T08:54:24;13.23;;;4.20;;
46607;SDS011;32330;51.936;7.184;2024-03-23T08:56:53;12.02;;;4.10;;
46607;SDS011;32330;51.936;7.184;2024-03-23T08:59:20;11.80;;;3.45;;
46607;SDS011;32330;51.936;7.184;2024-03-23T09:01:46;16.45;;;5.65;;
46607;SDS011;32330;51.936;7.184;2024-03-23T09:04:14;11.40;;;3.85;;
46607;SDS011;32330;51.936;7.184;2024-03-23T09:06:41;9.88;;;2.97;;
46607;SDS011;32330;51.936;7.184;2024-03-23T09:09:09;10.60;;;3.47;;
46607;SDS011;32330;51.936;7.184;2024-03-23T09:11:35;9.95;;;3.40;;
46607;SDS011;32330;51.936;7.184;2024-03-23T09:14:04;11.63;;;3.65;;
46607;SDS011;32330;51.936;7.184;2024-03-23T09:16:30;9.95;;;3.35;;
46607;SDS011;32330;51.936;7.184;2024-03-23T09:18:57;10.13;;;4.28;;
46607;SDS011;32330;51.936;7.184;2024-03-23T09:21:23;12.27;;;5.30;;
46607;SDS011;32330;51.936;7.184;2024-03-23T09:23:50;12.73;;;3.88;;
46607;SDS011;32330;51.936;7.184;2024-03-23T09:26:17;10.38;;;4.32;;
46607;SDS011;32330;51.936;7.184;2024-03-23T09:28:44;7.20;;;2.95;;
46607;SDS011;32330;51.936;7.184;2024-03-23T09:31:11;9.60;;;3.30;;
46607;SDS011;32330;51.936;7.184;2024-03-23T09:33:40;11.95;;;3.33;;
46607;SDS011;32330;51.936;7.184;2024-03-23T09:36:07;9.48;;;3.03;;
46607;SDS011;32330;51.936;7.184;2024-03-23T09:38:34;9.23;;;2.85;;
46607;SDS011;32330;51.936;7.184;2024-03-23T09:41:03;9.02;;;2.90;;
46607;SDS011;32330;51.936;7.184;2024-03-23T09:43:33;12.80;;;3.10;;
46607;SDS011;32330;51.936;7.184;2024-03-23T09:46:00;9.57;;;2.72;;
46607;SDS011;32330;51.936;7.184;2024-03-23T09:48:30;9.38;;;3.00;;
46607;SDS011;32330;51.936;7.184;2024-03-23T09:50:56;10.52;;;3.83;;
46607;SDS011;32330;51.936;7.184;2024-03-23T09:53:24;9.15;;;2.72;;
46607;SDS011;32330;51.936;7.184;2024-03-23T09:55:50;12.57;;;3.20;;
46607;SDS011;32330;51.936;7.184;2024-03-23T09:58:18;10.27;;;2.95;;
46607;SDS011;32330;51.936;7.184;2024-03-23T10:00:44;8.20;;;2.88;;
46607;SDS011;32330;51.936;7.184;2024-03-23T10:03:11;7.45;;;2.50;;
46607;SDS011;32330;51.936;7.184;2024-03-23T10:05:39;13.27;;;2.72;;
46607;SDS011;32330;51.936;7.184;2024-03-23T10:08:17;11.43;;;4.38;;
46607;SDS011;32330;51.936;7.184;2024-03-23T10:10:44;9.27;;;2.33;;
46607;SDS011;32330;51.936;7.184;2024-03-23T10:13:23;9.60;;;2.35;;
46607;SDS011;32330;51.936;7.184;2024-03-23T10:15:54;8.10;;;2.60;;
46607;SDS011;32330;51.936;7.184;2024-03-23T10:18:23;7.88;;;2.60;;
46607;SDS011;32330;51.936;7.184;2024-03-23T10:20:52;6.63;;;1.80;;
46607;SDS011;32330;51.936;7.184;2024-03-23T10:23:33;8.25;;;2.30;;
46607;SDS011;32330;51.936;7.184;2024-03-23T10:26:08;9.23;;;2.40;;
46607;SDS011;32330;51.936;7.184;2024-03-23T10:28:52;10.93;;;3.15;;
46607;SDS011;32330;51.936;7.184;2024-03-23T10:31:20;10.43;;;2.88;;
46607;SDS011;32330;51.936;7.184;2024-03-23T10:33:48;9.30;;;2.58;;
46607;SDS011;32330;51.936;7.184;2024-03-23T10:36:26;12.40;;;2.30;;
46607;SDS011;32330;51.936;7.184;2024-03-23T10:38:57;7.10;;;2.08;;
46607;SDS011;32330;51.936;7.184;2024-03-23T10:41:24;8.32;;;2.33;;
46607;SDS011;32330;51.936;7.184;2024-03-23T10:43:54;8.80;;;2.10;;
46607;SDS011;32330;51.936;7.184;2024-03-23T10:46:23;9.38;;;2.60;;
46607;SDS011;32330;51.936;7.184;2024-03-23T10:48:50;7.28;;;1.85;;
46607;SDS011;32330;51.936;7.184;2024-03-23T10:51:16;3.85;;;1.20;;
46607;SDS011;32330;51.936;7.184;2024-03-23T10:53:45;3.90;;;1.15;;
46607;SDS011;32330;51.936;7.184;2024-03-23T10:56:13;4.35;;;1.08;;
46607;SDS011;32330;51.936;7.184;2024-03-23T10:58:42;3.28;;;1.00;;
46607;SDS011;32330;51.936;7.184;2024-03-23T11:01:12;3.67;;;1.03;;
46607;SDS011;32330;51.936;7.184;2024-03-23T11:03:44;5.95;;;1.88;;
46607;SDS011;32330;51.936;7.184;2024-03-23T11:06:11;5.68;;;2.53;;
46607;SDS011;32330;51.936;7.184;2024-03-23T11:12:26;5.28;;;1.70;;
46607;SDS011;32330;51.936;7.184;2024-03-23T11:14:57;7.60;;;2.30;;
46607;SDS011;32330;51.936;7.184;2024-03-23T11:17:27;9.82;;;2.33;;
46607;SDS011;32330;51.936;7.184;2024-03-23T11:19:57;7.78;;;2.20;;
46607;SDS011;32330;51.936;7.184;2024-03-23T11:25:17;6.75;;;2.08;;
46607;SDS011;32330;51.936;7.184;2024-03-23T11:27:51;7.20;;;2.30;;
46607;SDS011;32330;51.936;7.184;2024-03-23T11:30:20;9.70;;;2.25;;
46607;SDS011;32330;51.936;7.184;2024-03-23T11:32:54;5.25;;;1.98;;
46607;SDS011;32330;51.936;7.184;2024-03-23T11:35:25;12.48;;;2.53;;
46607;SDS011;32330;51.936;7.184;2024-03-23T11:38:05;5.57;;;1.60;;
46607;SDS011;32330;51.936;7.184;2024-03-23T11:40:35;5.13;;;1.88;;
46607;SDS011;32330;51.936;7.184;2024-03-23T11:43:04;5.82;;;1.67;;
46607;SDS011;32330;51.936;7.184;2024-03-23T11:45:45;5.88;;;1.85;;
46607;SDS011;32330;51.936;7.184;2024-03-23T11:48:13;7.90;;;1.83;;
46607;SDS011;32330;51.936;7.184;2024-03-23T11:50:47;4.90;;;1.15;;
46607;SDS011;32330;51.936;7.184;2024-03-23T11:53:15;2.55;;;0.60;;
46607;SDS011;32330;51.936;7.184;2024-03-23T11:55:48;2.22;;;0.80;;
46607;SDS011;32330;51.936;7.184;2024-03-23T11:58:22;5.80;;;1.10;;
46607;SDS011;32330;51.936;7.184;2024-03-23T12:01:01;3.50;;;1.20;;
46607;SDS011;32330;51.936;7.184;2024-03-23T12:06:04;5.28;;;1.48;;
46607;SDS011;32330;51.936;7.184;2024-03-23T12:11:21;4.55;;;1.48;;
46607;SDS011;32330;51.936;7.184;2024-03-23T12:13:51;6.45;;;2.00;;
46607;SDS011;32330;51.936;7.184;2024-03-23T12:16:19;4.95;;;1.67;;
46607;SDS011;32330;51.936;7.184;2024-03-23T12:18:54;6.75;;;2.10;;
46607;SDS011;32330;51.936;7.184;2024-03-23T12:21:33;9.50;;;2.10;;
46607;SDS011;32330;51.936;7.184;2024-03-23T12:24:04;6.53;;;1.77;;
46607;SDS011;32330;51.936;7.184;2024-03-23T12:26:30;7.68;;;2.15;;
46607;SDS011;32330;51.936;7.184;2024-03-23T12:29:01;4.97;;;2.10;;
46607;SDS011;32330;51.936;7.184;2024-03-23T12:31:27;6.32;;;2.10;;
46607;SDS011;32330;51.936;7.184;2024-03-23T12:33:54;6.43;;;1.92;;
46607;SDS011;32330;51.936;7.184;2024-03-23T12:36:20;9.50;;;1.77;;
46607;SDS011;32330;51.936;7.184;2024-03-23T12:38:51;7.13;;;1.73;;
46607;SDS011;32330;51.936;7.184;2024-03-23T12:41:17;7.65;;;1.98;;
46607;SDS011;32330;51.936;7.184;2024-03-23T12:43:54;9.05;;;1.95;;
46607;SDS011;32330;51.936;7.184;2024-03-23T12:46:34;6.72;;;1.52;;
46607;SDS011;32330;51.936;7.184;2024-03-23T12:49:04;5.55;;;1.67;;
46607;SDS011;32330;51.936;7.184;2024-03-23T12:51:30;8.13;;;1.65;;
46607;SDS011;32330;51.936;7.184;2024-03-23T12:53:57;5.13;;;1.80;;
46607;SDS011;32330;51.936;7.184;2024-03-23T12:56:33;6.50;;;1.92;;
46607;SDS011;32330;51.936;7.184;2024-03-23T12:59:03;6.22;;;1.83;;
46607;SDS011;32330;51.936;7.184;2024-03-23T13:01:33;7.13;;;1.70;;
46607;SDS011;32330;51.936;7.184;2024-03-23T13:04:00;6.10;;;1.80;;
46607;SDS011;32330;51.936;7.184;2024-03-23T13:06:27;7.13;;;2.08;;
46607;SDS011;32330;51.936;7.184;2024-03-23T13:09:00;7.88;;;2.67;;
46607;SDS011;32330;51.936;7.184;2024-03-23T13:11:26;6.28;;;1.88;;
46607;SDS011;32330;51.936;7.184;2024-03-23T13:13:54;8.55;;;2.15;;
46607;SDS011;32330;51.936;7.184;2024-03-23T13:16:24;8.13;;;1.98;;
46607;SDS011;32330;51.936;7.184;2024-03-23T13:18:54;7.13;;;1.95;;
46607;SDS011;32330;51.936;7.184;2024-03-23T13:21:20;7.35;;;1.50;;
46607;SDS011;32330;51.936;7.184;2024-03-23T13:23:52;6.32;;;1.42;;
46607;SDS011;32330;51.936;7.184;2024-03-23T13:26:18;7.95;;;1.95;;
46607;SDS011;32330;51.936;7.184;2024-03-23T13:28:51;9.90;;;1.90;;
46607;SDS011;32330;51.936;7.184;2024-03-23T13:31:26;6.47;;;2.08;;
46607;SDS011;32330;51.936;7.184;2024-03-23T13:33:56;4.35;;;1.40;;
46607;SDS011;32330;51.936;7.184;2024-03-23T13:36:22;9.57;;;2.78;;
46607;SDS011;32330;51.936;7.184;2024-03-23T13:38:49;5.30;;;1.45;;
46607;SDS011;32330;51.936;7.184;2024-03-23T13:41:16;5.15;;;1.42;;
46607;SDS011;32330;51.936;7.184;2024-03-23T13:43:43;9.38;;;1.65;;
46607;SDS011;32330;51.936;7.184;2024-03-23T13:46:09;5.45;;;1.20;;
46607;SDS011;32330;51.936;7.184;2024-03-23T13:48:36;5.32;;;1.50;;
46607;SDS011;32330;51.936;7.184;2024-03-23T13:51:04;4.32;;;1.70;;
46607;SDS011;32330;51.936;7.184;2024-03-23T13:53:31;6.82;;;1.40;;
46607;SDS011;32330;51.936;7.184;2024-03-23T13:55:58;6.20;;;1.73;;
46607;SDS011;32330;51.936;7.184;2024-03-23T13:58:31;5.20;;;2.88;;
46607;SDS011;32330;51.936;7.184;2024-03-23T14:00:57;5.55;;;1.50;;
46607;SDS011;32330;51.936;7.184;2024-03-23T14:03:25;2.75;;;1.10;;
46607;SDS011;32330;51.936;7.184;2024-03-23T14:05:52;3.65;;;1.05;;
46607;SDS011;32330;51.936;7.184;2024-03-23T14:08:24;3.45;;;1.15;;
46607;SDS011;32330;51.936;7.184;2024-03-23T14:10:53;4.18;;;1.30;;
46607;SDS011;32330;51.936;7.184;2024-03-23T14:13:22;5.20;;;1.63;;
46607;SDS011;32330;51.936;7.184;2024-03-23T14:15:52;5.35;;;1.50;;
46607;SDS011;32330;51.936;7.184;2024-03-23T14:18:20;6.50;;;1.45;;
46607;SDS011;32330;51.936;7.184;2024-03-23T14:20:48;8.30;;;1.90;;
46607;SDS011;32330;51.936;7.184;2024-03-23T14:23:19;3.88;;;1.77;;
46607;SDS011;32330;51.936;7.184;2024-03-23T14:25:49;8.15;;;1.70;;
46607;SDS011;32330;51.936;7.184;2024-03-23T14:28:19;8.30;;;1.77;;
46607;SDS011;32330;51.936;7.184;2024-03-23T14:30:45;7.25;;;1.73;;
46607;SDS011;32330;51.936;7.184;2024-03-23T14:33:16;4.78;;;1.27;;
46607;SDS011;32330;51.936;7.184;2024-03-23T14:35:58;5.45;;;1.77;;
46607;SDS011;32330;51.936;7.184;2024-03-23T14:38:25;6.30;;;2.33;;
46607;SDS011;32330;51.936;7.184;2024-03-23T14:40:55;8.93;;;2.10;;
46607;SDS011;32330;51.936;7.184;2024-03-23T14:43:28;7.15;;;1.80;;
46607;SDS011;32330;51.936;7.184;2024-03-23T14:46:07;6.70;;;1.73;;
46607;SDS011;32330;51.936;7.184;2024-03-23T15:03:57;4.68;;;1.13;;
46607;SDS011;32330;51.936;7.184;2024-03-23T15:06:24;5.55;;;1.45;;
46607;SDS011;32330;51.936;7.184;2024-03-23T15:08:53;5.38;;;2.08;;
46607;SDS011;32330;51.936;7.184;2024-03-23T15:13:51;5.72;;;2.03;;
46607;SDS011;32330;51.936;7.184;2024-03-23T15:16:18;4.45;;;1.35;;
46607;SDS011;32330;51.936;7.184;2024-03-23T15:18:48;8.13;;;2.08;;
46607;SDS011;32330;51.936;7.184;2024-03-23T15:26:19;5.38;;;2.35;;
46607;SDS011;32330;51.936;7.184;2024-03-23T15:28:47;6.47;;;1.65;;
46607;SDS011;32330;51.936;7.184;2024-03-23T15:31:33;4.35;;;1.45;;
46607;SDS011;32330;51.936;7.184;2024-03-23T15:34:00;5.82;;;1.70;;
46607;SDS011;32330;51.936;7.184;2024-03-23T15:36:26;6.88;;;1.90;;
46607;SDS011;32330;51.936;7.184;2024-03-23T15:38:52;5.25;;;1.48;;
46607;SDS011;32330;51.936;7.184;2024-03-23T15:41:20;4.40;;;1.80;;
46607;SDS011;32330;51.936;7.184;2024-03-23T15:43:49;9.10;;;2.08;;
46607;SDS011;32330;51.936;7.184;2024-03-23T15:50:34;6.38;;;1.52;;
46607;SDS011;32330;51.936;7.184;2024-03-23T15:53:01;4.75;;;1.52;;
46607;SDS011;32330;51.936;7.184;2024-03-23T15:55:28;5.15;;;1.40;;
46607;SDS011;32330;51.936;7.184;2024-03-23T15:57:55;6.63;;;1.67;;
46607;SDS011;32330;51.936;7.184;2024-03-23T16:00:21;6.00;;;1.67;;
46607;SDS011;32330;51.936;7.184;2024-03-23T16:02:48;4.95;;;1.33;;
46607;SDS011;32330;51.936;7.184;2024-03-23T16:05:14;6.32;;;1.92;;
46607;SDS011;32330;51.936;7.184;2024-03-23T16:07:43;9.20;;;2.75;;
46607;SDS011;32330;51.936;7.184;2024-03-23T16:10:09;5.85;;;1.73;;
46607;SDS011;32330;51.936;7.184;2024-03-23T16:12:37;7.45;;;1.75;;
46607;SDS011;32330;51.936;7.184;2024-03-23T16:15:03;7.57;;;1.63;;
46607;SDS011;32330;51.936;7.184;2024-03-23T16:17:31;5.63;;;1.50;;
46607;SDS011;32330;51.936;7.184;2024-03-23T16:20:01;6.03;;;1.50;;